createdAt,value
2022-08-25T11:24:53.387Z,73.17
2022-08-25T11:25:53.361Z,71.08
2022-08-25T11:26:53.364Z,71.84
2022-08-25T11:27:53.360Z,69.02
2022-08-25T11:28:53.331Z,67.81
2022-08-25T11:29:53.321Z,67.81
2022-08-25T11:30:53.357Z,67.45
2022-08-25T11:31:53.895Z,69.28
2022-08-25T11:32:53.303Z,69.51
2022-08-25T11:33:53.291Z,69.02
2022-08-25T11:34:53.272Z,69.09
2022-08-25T11:35:53.271Z,66.89
2022-08-25T11:36:53.257Z,67.41
2022-08-25T11:37:53.265Z,69.48
2022-08-25T11:38:53.237Z,69.06
2022-08-25T11:39:53.266Z,67.58
2022-08-25T11:40:53.230Z,67.02
2022-08-25T11:41:53.219Z,65.37
2022-08-25T11:42:53.223Z,64.72
2022-08-25T11:43:53.190Z,65.21
2022-08-25T11:44:54.894Z,65.18
2022-08-25T11:45:54.542Z,65.61
2022-08-25T11:46:53.177Z,64.98
2022-08-25T11:47:53.179Z,65.67
2022-08-25T11:48:53.159Z,64.98
2022-08-25T11:49:53.155Z,66.36
2022-08-25T11:50:53.142Z,67.32
2022-08-25T11:51:53.133Z,66.72
2022-08-25T11:52:53.137Z,67.19
2022-08-25T11:53:53.116Z,67.71
2022-08-25T11:54:53.099Z,67.48
2022-08-25T11:55:53.092Z,67.48
2022-08-25T11:56:53.093Z,68.66
2022-08-25T11:57:53.727Z,68.86
2022-08-25T11:58:53.062Z,67.94
2022-08-25T11:59:53.069Z,66.03
2022-08-25T12:00:53.050Z,62.49
2022-08-25T12:01:53.049Z,62.19
2022-08-25T12:02:53.048Z,62.71
2022-08-25T12:03:53.133Z,64.20
2022-08-25T12:04:53.162Z,64.16
2022-08-25T12:05:53.005Z,64.56
2022-08-25T12:06:53.006Z,64.89
2022-08-25T12:07:52.999Z,64.36
2022-08-25T12:08:52.981Z,62.16
2022-08-25T12:09:52.972Z,61.93
2022-08-25T12:10:52.966Z,61.36
2022-08-25T12:11:52.966Z,61.33
2022-08-25T12:12:52.966Z,61.66
2022-08-25T12:13:52.944Z,62.19
2022-08-25T12:14:52.941Z,63.96
2022-08-25T12:15:52.929Z,62.74
2022-08-25T12:16:52.943Z,61.36
2022-08-25T12:17:52.928Z,61.99
2022-08-25T12:18:52.918Z,62.19
2022-08-25T12:19:52.897Z,62.68
2022-08-25T12:20:52.891Z,62.59
2022-08-25T12:21:52.882Z,62.41
2022-08-25T12:22:52.895Z,61.07
2022-08-25T12:23:53.368Z,61.93
2022-08-25T12:24:52.871Z,62.25
2022-08-25T12:25:52.863Z,60.80
2022-08-25T12:26:52.844Z,60.80
2022-08-25T12:27:52.836Z,60.66
2022-08-25T12:28:52.849Z,60.50
2022-08-25T12:29:52.822Z,60.70
2022-08-25T12:30:52.890Z,61.33
2022-08-25T12:31:52.810Z,62.20
2022-08-25T12:32:52.800Z,63.38
2022-08-25T12:33:52.816Z,62.93
2022-08-25T12:34:52.795Z,63.12
2022-08-25T12:35:52.777Z,64.40
2022-08-25T12:36:52.770Z,63.97
2022-08-25T12:37:52.762Z,63.84
2022-08-25T12:38:52.767Z,62.76
2022-08-25T12:39:52.787Z,63.35
2022-08-25T12:40:52.749Z,62.13
2022-08-25T12:41:52.777Z,62.38
2022-08-25T12:42:52.735Z,62.12
2022-08-25T12:43:52.728Z,60.38
2022-08-25T12:44:52.710Z,60.97
2022-08-25T12:45:53.101Z,59.91
2022-08-25T12:46:52.700Z,60.07
2022-08-25T12:47:52.683Z,58.22
2022-08-25T12:48:52.691Z,59.20
2022-08-25T12:49:52.674Z,59.04
2022-08-25T12:50:52.679Z,59.33
2022-08-25T12:51:52.667Z,58.77
2022-08-25T12:52:52.653Z,58.07
2022-08-25T12:53:52.662Z,58.20
2022-08-25T12:54:52.642Z,57.02
2022-08-25T12:55:52.629Z,56.25
2022-08-25T12:56:52.632Z,56.82
2022-08-25T12:57:52.616Z,57.71
2022-08-25T12:59:00.881Z,57.29
2022-08-25T12:59:52.616Z,57.71
2022-08-25T13:00:53.180Z,56.79
2022-08-25T13:01:52.732Z,56.92
2022-08-25T13:02:52.668Z,56.69
2022-08-25T13:03:52.597Z,56.25
2022-08-25T13:04:52.572Z,55.49
2022-08-25T13:05:52.564Z,56.71
2022-08-25T13:06:52.560Z,56.61
2022-08-25T13:07:52.562Z,57.18
2022-08-25T13:08:52.569Z,56.19
2022-08-25T13:09:52.538Z,56.21
2022-08-25T13:10:52.535Z,57.23
2022-08-25T13:11:52.564Z,56.10
2022-08-25T13:12:52.521Z,55.21
2022-08-25T13:13:52.537Z,55.01
2022-08-25T13:14:52.510Z,55.28
2022-08-25T13:15:54.827Z,55.45
2022-08-25T13:16:52.543Z,55.68
2022-08-25T13:17:52.842Z,54.98
2022-08-25T13:18:52.508Z,55.28
2022-08-25T13:19:52.486Z,54.86
2022-08-25T13:20:52.550Z,55.30
2022-08-25T13:21:52.465Z,55.79
2022-08-25T13:22:57.235Z,55.68
2022-08-25T13:23:54.013Z,55.21
2022-08-25T13:24:52.493Z,55.47
2022-08-25T13:25:52.442Z,55.55
2022-08-25T13:26:52.447Z,55.99
2022-08-25T13:27:52.440Z,55.57
2022-08-25T13:28:52.450Z,55.87
2022-08-25T13:29:52.729Z,55.69
2022-08-25T13:30:52.427Z,56.63
2022-08-25T13:31:52.446Z,54.69
2022-08-25T13:32:52.406Z,54.12
2022-08-25T13:33:52.420Z,54.64
2022-08-25T13:34:52.469Z,53.92
2022-08-25T13:35:52.440Z,53.97
2022-08-25T13:36:54.235Z,53.11
2022-08-25T13:37:52.379Z,52.14
2022-08-25T13:38:52.395Z,50.88
2022-08-25T13:39:56.430Z,51.89
2022-08-25T13:40:52.406Z,52.17
2022-08-25T13:41:54.550Z,52.29
2022-08-25T13:42:55.880Z,52.26
2022-08-25T13:43:52.368Z,53.08
2022-08-25T13:44:53.941Z,52.22
2022-08-25T13:45:52.385Z,51.28
2022-08-25T13:46:52.347Z,51.42
2022-08-25T13:47:55.911Z,52.17
2022-08-25T13:48:52.350Z,51.77
2022-08-25T13:49:52.324Z,51.25
2022-08-25T13:50:52.952Z,52.76
2022-08-25T13:51:52.314Z,52.29
2022-08-25T13:52:52.373Z,51.15
2022-08-25T13:53:52.327Z,52.73
2022-08-25T13:54:52.304Z,52.17
2022-08-25T13:55:52.370Z,52.31
2022-08-25T13:56:52.305Z,52.26
2022-08-25T13:57:52.292Z,52.96
2022-08-25T13:58:52.312Z,53.11
2022-08-25T13:59:52.287Z,52.17
2022-08-25T14:00:53.686Z,51.67
2022-08-25T14:01:52.339Z,53.38
2022-08-25T14:02:52.379Z,52.54
2022-08-25T14:03:52.291Z,50.71
2022-08-25T14:04:52.853Z,50.76
2022-08-25T14:05:52.262Z,50.46
2022-08-25T14:06:52.269Z,51.79
2022-08-25T14:07:58.778Z,51.40
2022-08-25T14:08:54.734Z,53.55
2022-08-25T14:09:52.361Z,51.82
2022-08-25T14:10:52.249Z,52.31
2022-08-25T14:11:52.242Z,51.65
2022-08-25T14:12:52.253Z,51.47
2022-08-25T14:13:52.259Z,50.98
2022-08-25T14:14:52.235Z,52.41
2022-08-25T14:15:52.239Z,52.93
2022-08-25T14:16:52.373Z,53.39
2022-08-25T14:17:52.232Z,53.89
2022-08-25T14:18:52.242Z,54.36
2022-08-25T14:19:52.230Z,53.96
2022-08-25T14:20:52.230Z,55.30
2022-08-25T14:21:52.892Z,54.56
2022-08-25T14:22:52.327Z,53.63
2022-08-25T14:23:52.233Z,51.75
2022-08-25T14:24:52.221Z,53.18
2022-08-25T14:25:52.213Z,52.39
2022-08-25T14:26:54.485Z,51.70
2022-08-25T14:28:08.302Z,50.41
2022-08-25T14:28:52.213Z,50.13
2022-08-25T14:29:52.974Z,49.49
2022-08-25T14:30:52.209Z,50.81
2022-08-25T14:31:52.249Z,50.53
2022-08-25T14:32:52.248Z,50.43
2022-08-25T14:33:52.213Z,49.54
2022-08-25T14:34:52.189Z,49.07
2022-08-25T14:35:52.197Z,48.82
2022-08-25T14:36:52.196Z,47.78
2022-08-25T14:37:52.248Z,48.67
2022-08-25T14:38:54.541Z,48.15
2022-08-25T14:39:52.236Z,49.29
2022-08-25T14:40:52.234Z,48.60
2022-08-25T14:41:53.899Z,49.40
2022-08-25T14:42:52.188Z,49.77
2022-08-25T14:43:52.202Z,50.01
2022-08-25T14:44:52.186Z,50.36
2022-08-25T14:45:52.214Z,49.86
2022-08-25T14:46:52.183Z,49.94
2022-08-25T14:47:52.186Z,49.86
2022-08-25T14:48:52.197Z,51.30
2022-08-25T14:49:52.181Z,50.98
2022-08-25T14:50:52.172Z,51.57
2022-08-25T14:51:52.181Z,51.37
2022-08-25T14:52:52.302Z,49.57
2022-08-25T14:53:52.189Z,47.90
2022-08-25T14:54:52.166Z,47.33
2022-08-25T14:55:52.167Z,47.75
2022-08-25T14:56:52.174Z,46.08
2022-08-25T14:57:52.163Z,46.04
2022-08-25T14:58:54.292Z,46.34
2022-08-25T14:59:52.163Z,47.45
2022-08-25T15:00:52.210Z,46.70
2022-08-25T15:01:52.163Z,47.25
2022-08-25T15:02:52.162Z,48.47
2022-08-25T15:03:52.205Z,47.87
2022-08-25T15:04:52.169Z,46.50
2022-08-25T15:05:52.164Z,46.13
2022-08-25T15:06:52.164Z,46.05
2022-08-25T15:07:52.164Z,46.26
2022-08-25T15:08:52.177Z,48.65
2022-08-25T15:09:52.194Z,47.73
2022-08-25T15:10:52.165Z,48.44
2022-08-25T15:11:52.167Z,49.88
2022-08-25T15:12:53.878Z,48.81
2022-08-25T15:13:52.188Z,48.99
2022-08-25T15:14:52.165Z,49.78
2022-08-25T15:15:53.225Z,50.45
2022-08-25T15:16:52.344Z,50.85
2022-08-25T15:17:52.174Z,50.35
2022-08-25T15:18:52.186Z,50.51
2022-08-25T15:19:52.172Z,50.95
2022-08-25T15:20:52.179Z,50.56
2022-08-25T15:21:52.186Z,50.56
2022-08-25T15:22:52.176Z,50.08
2022-08-25T15:23:56.222Z,50.03
2022-08-25T15:24:52.178Z,52.69
2022-08-25T15:25:52.739Z,51.77
2022-08-25T15:27:52.183Z,51.79
2022-08-25T15:28:52.206Z,53.18
2022-08-25T15:29:52.196Z,53.85
2022-08-25T15:30:52.187Z,53.13
2022-08-25T15:31:52.257Z,52.24
2022-08-25T15:32:52.201Z,51.37
2022-08-25T15:33:52.206Z,51.40
2022-08-25T15:34:52.203Z,51.50
2022-08-25T15:35:52.197Z,51.10
2022-08-25T15:36:52.206Z,51.72
2022-08-25T15:37:52.209Z,51.72
2022-08-25T15:38:52.223Z,51.92
2022-08-25T15:39:52.290Z,53.95
2022-08-25T15:40:52.212Z,53.60
2022-08-25T15:41:52.293Z,53.63
2022-08-25T15:42:52.209Z,55.70
2022-08-25T15:43:52.231Z,55.51
2022-08-25T15:44:53.095Z,55.30
2022-08-25T15:45:52.212Z,55.49
2022-08-25T15:46:52.248Z,57.39
2022-08-25T15:47:54.136Z,58.64
2022-08-25T15:48:52.248Z,60.19
2022-08-25T15:55:03.809Z,57.19
2022-08-25T15:56:06.300Z,57.12
2022-08-25T15:57:03.790Z,56.46
2022-08-25T15:58:03.800Z,56.65
2022-08-25T15:59:03.802Z,57.77
2022-08-25T16:00:03.789Z,57.03
2022-08-25T16:01:03.849Z,56.46
2022-08-25T16:02:04.378Z,55.68
2022-08-25T16:03:03.797Z,54.44
2022-08-25T16:04:03.799Z,54.74
2022-08-25T16:05:03.786Z,54.04
2022-08-25T16:06:03.797Z,55.26
2022-08-25T16:07:03.788Z,55.85
2022-08-25T16:08:03.795Z,55.15
2022-08-25T16:09:03.803Z,55.33
2022-08-25T16:10:03.788Z,55.22
2022-08-25T16:11:03.813Z,55.20
2022-08-25T16:12:06.765Z,55.52
2022-08-25T16:13:03.802Z,54.27
2022-08-25T16:14:03.812Z,55.10
2022-08-25T16:15:03.802Z,56.48
2022-08-25T16:16:03.909Z,57.53
2022-08-25T16:17:03.789Z,57.63
2022-08-25T16:18:04.830Z,57.50
2022-08-25T16:19:03.805Z,57.08
2022-08-25T16:20:03.801Z,58.00
2022-08-25T16:21:03.788Z,57.82
2022-08-25T16:22:03.792Z,57.86
2022-08-25T16:23:04.112Z,57.98
2022-08-25T16:24:07.533Z,56.67
2022-08-25T16:25:03.803Z,57.05
2022-08-25T16:26:03.794Z,56.06
2022-08-25T16:27:11.224Z,55.57
2022-08-25T16:28:03.794Z,56.27
2022-08-25T16:29:03.820Z,57.04
2022-08-25T16:30:03.799Z,58.33
2022-08-25T16:31:03.838Z,59.31
2022-08-25T16:32:03.808Z,59.51
2022-08-25T16:33:03.797Z,59.31
2022-08-25T16:34:03.807Z,59.28
2022-08-25T16:35:03.806Z,59.88
2022-08-25T16:36:03.793Z,59.88
2022-08-25T16:37:03.800Z,59.97
2022-08-25T16:38:03.926Z,59.75
2022-08-25T16:39:03.812Z,59.42
2022-08-25T16:40:03.825Z,60.41
2022-08-25T16:41:08.229Z,60.90
2022-08-25T16:42:03.786Z,60.80
2022-08-25T16:43:03.793Z,61.07
2022-08-25T16:44:03.804Z,61.10
2022-08-25T16:45:05.162Z,61.07
2022-08-25T16:46:03.785Z,61.55
2022-08-25T16:47:03.825Z,63.20
2022-08-25T16:48:03.769Z,62.57
2022-08-25T16:49:03.781Z,62.77
2022-08-25T16:50:03.762Z,62.94
2022-08-25T16:51:03.761Z,64.11
2022-08-25T16:52:03.764Z,63.92
2022-08-25T16:53:03.761Z,64.21
2022-08-25T16:54:03.759Z,63.72
2022-08-25T16:55:03.756Z,63.62
2022-08-25T16:56:04.456Z,63.85
2022-08-25T17:02:42.773Z,64.18
